sensor_id;sensor_type;location;lat;lon;timestamp;temperature;humidity
30893;DHT22;17595;50.884;4.346;2022-11-20T00:01:24;8.70;99.90
30893;DHT22;17595;50.884;4.346;2022-11-20T00:03:52;8.50;99.90
30893;DHT22;17595;50.884;4.346;2022-11-20T00:06:20;8.60;99.90
30893;DHT22;17595;50.884;4.346;2022-11-20T00:08:46;8.70;99.90
30893;DHT22;17595;50.884;4.346;2022-11-20T00:11:21;8.70;99.90
30893;DHT22;17595;50.884;4.346;2022-11-20T00:13:49;8.70;99.90
30893;DHT22;17595;50.884;4.346;2022-11-20T00:16:17;8.60;99.90
30893;DHT22;17595;50.884;4.346;2022-11-20T00:18:43;8.60;99.90
30893;DHT22;17595;50.884;4.346;2022-11-20T00:21:18;8.60;99.90
30893;DHT22;17595;50.884;4.346;2022-11-20T00:23:44;8.60;99.90
30893;DHT22;17595;50.884;4.346;2022-11-20T00:26:15;8.50;99.90
30893;DHT22;17595;50.884;4.346;2022-11-20T00:28:42;8.60;99.90
30893;DHT22;17595;50.884;4.346;2022-11-20T00:31:14;8.60;99.90
30893;DHT22;17595;50.884;4.346;2022-11-20T00:33:41;8.60;99.90
30893;DHT22;17595;50.884;4.346;2022-11-20T00:36:12;8.70;99.90
30893;DHT22;17595;50.884;4.346;2022-11-20T00:38:38;8.60;99.90
30893;DHT22;17595;50.884;4.346;2022-11-20T00:41:06;8.50;99.90
30893;DHT22;17595;50.884;4.346;2022-11-20T00:43:32;8.40;99.90
30893;DHT22;17595;50.884;4.346;2022-11-20T00:45:59;8.50;99.90
30893;DHT22;17595;50.884;4.346;2022-11-20T00:48:25;8.60;99.90
30893;DHT22;17595;50.884;4.346;2022-11-20T00:50:51;8.70;99.90
30893;DHT22;17595;50.884;4.346;2022-11-20T00:53:17;8.70;99.90
30893;DHT22;17595;50.884;4.346;2022-11-20T00:55:42;8.60;99.90
30893;DHT22;17595;50.884;4.346;2022-11-20T00:58:08;8.60;99.90
30893;DHT22;17595;50.884;4.346;2022-11-20T01:00:34;8.50;99.90
30893;DHT22;17595;50.884;4.346;2022-11-20T01:02:59;8.40;99.90
30893;DHT22;17595;50.884;4.346;2022-11-20T01:05:25;8.50;99.90
30893;DHT22;17595;50.884;4.346;2022-11-20T01:07:51;8.40;99.90
30893;DHT22;17595;50.884;4.346;2022-11-20T01:10:16;8.50;99.90
30893;DHT22;17595;50.884;4.346;2022-11-20T01:12:42;8.60;99.90
30893;DHT22;17595;50.884;4.346;2022-11-20T01:15:08;8.50;99.90
30893;DHT22;17595;50.884;4.346;2022-11-20T01:17:34;8.50;99.90
30893;DHT22;17595;50.884;4.346;2022-11-20T01:19:59;8.50;99.90
30893;DHT22;17595;50.884;4.346;2022-11-20T01:22:25;8.50;99.90
30893;DHT22;17595;50.884;4.346;2022-11-20T01:24:50;8.40;99.90
30893;DHT22;17595;50.884;4.346;2022-11-20T01:27:16;8.50;99.90
30893;DHT22;17595;50.884;4.346;2022-11-20T01:29:42;8.50;99.90
30893;DHT22;17595;50.884;4.346;2022-11-20T01:32:07;8.40;99.90
30893;DHT22;17595;50.884;4.346;2022-11-20T01:34:33;8.30;99.90
30893;DHT22;17595;50.884;4.346;2022-11-20T01:36:58;8.30;99.90
30893;DHT22;17595;50.884;4.346;2022-11-20T01:39:25;8.30;99.90
30893;DHT22;17595;50.884;4.346;2022-11-20T01:41:53;8.20;99.90
30893;DHT22;17595;50.884;4.346;2022-11-20T01:44:56;8.20;99.90
30893;DHT22;17595;50.884;4.346;2022-11-20T01:47:35;8.40;99.90
30893;DHT22;17595;50.884;4.346;2022-11-20T01:50:14;8.60;99.90
30893;DHT22;17595;50.884;4.346;2022-11-20T01:52:51;8.50;99.90
30893;DHT22;17595;50.884;4.346;2022-11-20T01:55:22;8.50;99.90
30893;DHT22;17595;50.884;4.346;2022-11-20T01:57:49;8.40;99.90
30893;DHT22;17595;50.884;4.346;2022-11-20T02:00:17;8.30;99.90
30893;DHT22;17595;50.884;4.346;2022-11-20T02:02:48;8.40;99.90
30893;DHT22;17595;50.884;4.346;2022-11-20T02:05:36;8.40;99.90
30893;DHT22;17595;50.884;4.346;2022-11-20T02:08:04;8.50;99.90
30893;DHT22;17595;50.884;4.346;2022-11-20T02:10:31;8.50;99.90
30893;DHT22;17595;50.884;4.346;2022-11-20T02:12:57;8.50;99.90
30893;DHT22;17595;50.884;4.346;2022-11-20T02:15:42;8.50;99.90
30893;DHT22;17595;50.884;4.346;2022-11-20T02:18:09;8.40;99.90
30893;DHT22;17595;50.884;4.346;2022-11-20T02:20:35;8.30;99.90
30893;DHT22;17595;50.884;4.346;2022-11-20T02:25:57;7.80;99.90
30893;DHT22;17595;50.884;4.346;2022-11-20T02:28:23;7.80;99.90
30893;DHT22;17595;50.884;4.346;2022-11-20T02:30:49;7.70;99.90
30893;DHT22;17595;50.884;4.346;2022-11-20T02:33:14;7.70;99.90
30893;DHT22;17595;50.884;4.346;2022-11-20T02:35:43;7.30;99.90
30893;DHT22;17595;50.884;4.346;2022-11-20T02:38:09;7.50;99.90
30893;DHT22;17595;50.884;4.346;2022-11-20T02:40:35;7.50;99.90
30893;DHT22;17595;50.884;4.346;2022-11-20T02:43:01;7.60;99.90
30893;DHT22;17595;50.884;4.346;2022-11-20T02:45:26;7.70;99.90
30893;DHT22;17595;50.884;4.346;2022-11-20T02:47:52;7.70;99.90
30893;DHT22;17595;50.884;4.346;2022-11-20T02:50:18;7.70;99.90
30893;DHT22;17595;50.884;4.346;2022-11-20T02:52:44;7.70;99.90
30893;DHT22;17595;50.884;4.346;2022-11-20T02:55:10;7.80;99.90
30893;DHT22;17595;50.884;4.346;2022-11-20T02:57:35;7.80;99.90
30893;DHT22;17595;50.884;4.346;2022-11-20T03:00:03;7.70;99.90
30893;DHT22;17595;50.884;4.346;2022-11-20T03:02:31;7.70;99.90
30893;DHT22;17595;50.884;4.346;2022-11-20T03:04:57;7.70;99.90
30893;DHT22;17595;50.884;4.346;2022-11-20T03:07:23;7.40;99.90
30893;DHT22;17595;50.884;4.346;2022-11-20T03:09:49;7.10;99.90
30893;DHT22;17595;50.884;4.346;2022-11-20T03:12:14;7.10;99.90
30893;DHT22;17595;50.884;4.346;2022-11-20T03:14:40;7.20;99.90
30893;DHT22;17595;50.884;4.346;2022-11-20T03:17:06;7.40;99.90
30893;DHT22;17595;50.884;4.346;2022-11-20T03:19:32;7.50;99.90
30893;DHT22;17595;50.884;4.346;2022-11-20T03:21:57;7.40;99.90
30893;DHT22;17595;50.884;4.346;2022-11-20T03:24:23;7.50;99.90
30893;DHT22;17595;50.884;4.346;2022-11-20T03:26:49;7.60;99.90
30893;DHT22;17595;50.884;4.346;2022-11-20T03:29:14;7.60;99.90
30893;DHT22;17595;50.884;4.346;2022-11-20T03:31:40;7.70;99.90
30893;DHT22;17595;50.884;4.346;2022-11-20T03:34:08;7.70;99.90
30893;DHT22;17595;50.884;4.346;2022-11-20T03:36:34;7.80;99.90
30893;DHT22;17595;50.884;4.346;2022-11-20T03:39:00;7.90;99.90
30893;DHT22;17595;50.884;4.346;2022-11-20T03:41:28;7.70;99.90
30893;DHT22;17595;50.884;4.346;2022-11-20T03:43:59;7.80;99.90
30893;DHT22;17595;50.884;4.346;2022-11-20T03:46:25;7.90;99.90
30893;DHT22;17595;50.884;4.346;2022-11-20T03:48:52;8.00;99.90
30893;DHT22;17595;50.884;4.346;2022-11-20T03:51:20;8.10;99.90
30893;DHT22;17595;50.884;4.346;2022-11-20T03:53:47;8.20;99.90
30893;DHT22;17595;50.884;4.346;2022-11-20T03:56:15;8.40;99.90
30893;DHT22;17595;50.884;4.346;2022-11-20T03:58:42;8.40;99.90
30893;DHT22;17595;50.884;4.346;2022-11-20T04:01:16;8.40;99.90
30893;DHT22;17595;50.884;4.346;2022-11-20T04:03:43;8.50;99.90
30893;DHT22;17595;50.884;4.346;2022-11-20T04:06:17;8.40;99.90
30893;DHT22;17595;50.884;4.346;2022-11-20T04:08:44;8.40;99.90
30893;DHT22;17595;50.884;4.346;2022-11-20T04:13:49;8.30;99.90
30893;DHT22;17595;50.884;4.346;2022-11-20T04:16:16;8.30;99.90
30893;DHT22;17595;50.884;4.346;2022-11-20T04:18:42;8.30;99.90
30893;DHT22;17595;50.884;4.346;2022-11-20T04:21:09;8.30;99.90
30893;DHT22;17595;50.884;4.346;2022-11-20T04:23:35;8.40;99.90
30893;DHT22;17595;50.884;4.346;2022-11-20T04:26:05;8.50;99.90
30893;DHT22;17595;50.884;4.346;2022-11-20T04:28:31;8.50;99.90
30893;DHT22;17595;50.884;4.346;2022-11-20T04:31:09;8.50;99.90
30893;DHT22;17595;50.884;4.346;2022-11-20T04:33:35;8.60;99.90
30893;DHT22;17595;50.884;4.346;2022-11-20T04:36:05;8.50;99.90
30893;DHT22;17595;50.884;4.346;2022-11-20T04:38:32;8.50;99.90
30893;DHT22;17595;50.884;4.346;2022-11-20T04:41:02;8.50;99.90
30893;DHT22;17595;50.884;4.346;2022-11-20T04:43:29;8.50;99.90
30893;DHT22;17595;50.884;4.346;2022-11-20T04:45:55;8.60;99.90
30893;DHT22;17595;50.884;4.346;2022-11-20T04:48:21;8.70;99.90
30893;DHT22;17595;50.884;4.346;2022-11-20T04:50:47;8.60;99.90
30893;DHT22;17595;50.884;4.346;2022-11-20T04:53:13;8.60;99.90
30893;DHT22;17595;50.884;4.346;2022-11-20T04:55:38;8.70;99.90
30893;DHT22;17595;50.884;4.346;2022-11-20T04:58:04;8.80;99.90
30893;DHT22;17595;50.884;4.346;2022-11-20T05:00:30;8.80;99.90
30893;DHT22;17595;50.884;4.346;2022-11-20T05:02:55;8.80;99.90
30893;DHT22;17595;50.884;4.346;2022-11-20T05:05:21;8.80;99.90
30893;DHT22;17595;50.884;4.346;2022-11-20T05:07:46;8.70;99.90
30893;DHT22;17595;50.884;4.346;2022-11-20T05:10:12;8.70;99.90
30893;DHT22;17595;50.884;4.346;2022-11-20T05:12:37;8.60;99.90
30893;DHT22;17595;50.884;4.346;2022-11-20T05:15:03;8.60;99.90
30893;DHT22;17595;50.884;4.346;2022-11-20T05:17:29;8.70;99.90
30893;DHT22;17595;50.884;4.346;2022-11-20T05:19:54;8.70;99.90
30893;DHT22;17595;50.884;4.346;2022-11-20T05:22:20;8.80;99.90
30893;DHT22;17595;50.884;4.346;2022-11-20T05:24:46;8.90;99.90
30893;DHT22;17595;50.884;4.346;2022-11-20T05:27:11;8.90;99.90
30893;DHT22;17595;50.884;4.346;2022-11-20T05:29:37;8.90;99.90
30893;DHT22;17595;50.884;4.346;2022-11-20T05:32:03;8.90;99.90
30893;DHT22;17595;50.884;4.346;2022-11-20T05:34:28;8.80;99.90
30893;DHT22;17595;50.884;4.346;2022-11-20T05:36:54;8.90;99.90
30893;DHT22;17595;50.884;4.346;2022-11-20T05:39:19;9.00;99.90
30893;DHT22;17595;50.884;4.346;2022-11-20T05:41:45;9.00;99.90
30893;DHT22;17595;50.884;4.346;2022-11-20T05:44:11;9.00;99.90
30893;DHT22;17595;50.884;4.346;2022-11-20T05:46:37;9.00;99.90
30893;DHT22;17595;50.884;4.346;2022-11-20T05:49:02;8.90;99.90
30893;DHT22;17595;50.884;4.346;2022-11-20T05:51:28;9.00;99.90
30893;DHT22;17595;50.884;4.346;2022-11-20T05:53:55;9.20;99.90
30893;DHT22;17595;50.884;4.346;2022-11-20T05:56:22;9.20;99.90
30893;DHT22;17595;50.884;4.346;2022-11-20T05:58:47;9.10;99.90
30893;DHT22;17595;50.884;4.346;2022-11-20T06:01:18;9.10;99.90
30893;DHT22;17595;50.884;4.346;2022-11-20T06:03:45;9.20;99.90
30893;DHT22;17595;50.884;4.346;2022-11-20T06:06:13;9.30;99.90
30893;DHT22;17595;50.884;4.346;2022-11-20T06:08:39;9.30;99.90
30893;DHT22;17595;50.884;4.346;2022-11-20T06:11:06;9.20;99.90
30893;DHT22;17595;50.884;4.346;2022-11-20T06:13:31;9.10;99.90
30893;DHT22;17595;50.884;4.346;2022-11-20T06:15:57;9.10;99.90
30893;DHT22;17595;50.884;4.346;2022-11-20T06:18:23;9.20;99.90
30893;DHT22;17595;50.884;4.346;2022-11-20T06:20:48;9.10;99.90
30893;DHT22;17595;50.884;4.346;2022-11-20T06:23:14;9.10;99.90
30893;DHT22;17595;50.884;4.346;2022-11-20T06:25:40;9.00;99.90
30893;DHT22;17595;50.884;4.346;2022-11-20T06:28:06;8.90;99.90
30893;DHT22;17595;50.884;4.346;2022-11-20T06:30:32;8.90;99.90
30893;DHT22;17595;50.884;4.346;2022-11-20T06:32:58;8.90;99.90
30893;DHT22;17595;50.884;4.346;2022-11-20T06:35:23;9.00;99.90
30893;DHT22;17595;50.884;4.346;2022-11-20T06:37:49;9.10;99.90
30893;DHT22;17595;50.884;4.346;2022-11-20T06:40:14;8.90;99.90
30893;DHT22;17595;50.884;4.346;2022-11-20T06:42:40;8.90;99.90
30893;DHT22;17595;50.884;4.346;2022-11-20T06:45:06;9.00;99.90
30893;DHT22;17595;50.884;4.346;2022-11-20T06:47:32;9.00;99.90
30893;DHT22;17595;50.884;4.346;2022-11-20T06:49:58;9.10;99.90
30893;DHT22;17595;50.884;4.346;2022-11-20T06:52:24;9.10;99.90
30893;DHT22;17595;50.884;4.346;2022-11-20T06:54:49;9.10;99.90
30893;DHT22;17595;50.884;4.346;2022-11-20T06:57:15;9.10;99.90
30893;DHT22;17595;50.884;4.346;2022-11-20T06:59:41;9.10;99.90
30893;DHT22;17595;50.884;4.346;2022-11-20T07:02:10;9.10;99.90
30893;DHT22;17595;50.884;4.346;2022-11-20T07:04:37;9.20;99.90
30893;DHT22;17595;50.884;4.346;2022-11-20T07:07:02;9.20;99.90
30893;DHT22;17595;50.884;4.346;2022-11-20T07:09:28;9.20;99.90
30893;DHT22;17595;50.884;4.346;2022-11-20T07:11:54;9.10;99.90
30893;DHT22;17595;50.884;4.346;2022-11-20T07:14:19;9.10;99.90
30893;DHT22;17595;50.884;4.346;2022-11-20T07:16:45;9.30;99.90
30893;DHT22;17595;50.884;4.346;2022-11-20T07:19:10;9.30;99.90
30893;DHT22;17595;50.884;4.346;2022-11-20T07:21:36;9.40;99.90
30893;DHT22;17595;50.884;4.346;2022-11-20T07:24:02;9.40;99.90
30893;DHT22;17595;50.884;4.346;2022-11-20T07:26:27;9.50;99.90
30893;DHT22;17595;50.884;4.346;2022-11-20T07:28:53;9.60;99.90
30893;DHT22;17595;50.884;4.346;2022-11-20T07:31:18;9.50;99.90
30893;DHT22;17595;50.884;4.346;2022-11-20T07:33:44;9.40;99.90
30893;DHT22;17595;50.884;4.346;2022-11-20T07:36:11;9.50;99.90
30893;DHT22;17595;50.884;4.346;2022-11-20T07:38:37;9.40;99.90
30893;DHT22;17595;50.884;4.346;2022-11-20T07:41:03;9.50;99.90
30893;DHT22;17595;50.884;4.346;2022-11-20T07:43:29;9.60;99.90
30893;DHT22;17595;50.884;4.346;2022-11-20T07:45:55;9.70;99.90
30893;DHT22;17595;50.884;4.346;2022-11-20T07:48:22;9.80;99.90
30893;DHT22;17595;50.884;4.346;2022-11-20T07:50:47;9.80;99.90
30893;DHT22;17595;50.884;4.346;2022-11-20T07:53:13;9.70;99.90
30893;DHT22;17595;50.884;4.346;2022-11-20T07:55:39;9.80;99.90
30893;DHT22;17595;50.884;4.346;2022-11-20T07:58:05;9.70;99.90
30893;DHT22;17595;50.884;4.346;2022-11-20T08:00:30;9.70;99.90
30893;DHT22;17595;50.884;4.346;2022-11-20T08:02:56;9.60;99.90
30893;DHT22;17595;50.884;4.346;2022-11-20T08:05:22;9.60;99.90
30893;DHT22;17595;50.884;4.346;2022-11-20T08:07:48;9.70;99.90
30893;DHT22;17595;50.884;4.346;2022-11-20T08:10:15;9.80;99.90
30893;DHT22;17595;50.884;4.346;2022-11-20T08:12:49;9.80;99.90
30893;DHT22;17595;50.884;4.346;2022-11-20T08:15:34;9.70;99.90
30893;DHT22;17595;50.884;4.346;2022-11-20T08:18:02;9.80;99.90
30893;DHT22;17595;50.884;4.346;2022-11-20T08:20:28;9.70;99.90
30893;DHT22;17595;50.884;4.346;2022-11-20T08:22:58;9.80;99.90
30893;DHT22;17595;50.884;4.346;2022-11-20T08:25:25;9.90;99.90
30893;DHT22;17595;50.884;4.346;2022-11-20T08:27:51;10.00;99.90
30893;DHT22;17595;50.884;4.346;2022-11-20T08:30:16;10.10;99.90
30893;DHT22;17595;50.884;4.346;2022-11-20T08:32:42;10.10;99.90
30893;DHT22;17595;50.884;4.346;2022-11-20T08:35:08;10.20;99.90
30893;DHT22;17595;50.884;4.346;2022-11-20T08:37:34;10.20;99.90
30893;DHT22;17595;50.884;4.346;2022-11-20T08:39:59;10.30;99.90
30893;DHT22;17595;50.884;4.346;2022-11-20T08:42:25;10.30;99.90
30893;DHT22;17595;50.884;4.346;2022-11-20T08:44:51;10.20;99.90
30893;DHT22;17595;50.884;4.346;2022-11-20T08:47:16;10.20;99.90
30893;DHT22;17595;50.884;4.346;2022-11-20T08:49:42;10.20;99.90
30893;DHT22;17595;50.884;4.346;2022-11-20T08:52:07;10.30;99.90
30893;DHT22;17595;50.884;4.346;2022-11-20T08:54:33;10.20;99.90
30893;DHT22;17595;50.884;4.346;2022-11-20T08:56:58;10.30;99.90
30893;DHT22;17595;50.884;4.346;2022-11-20T08:59:24;10.40;99.90
30893;DHT22;17595;50.884;4.346;2022-11-20T09:01:50;10.40;99.90
30893;DHT22;17595;50.884;4.346;2022-11-20T09:04:15;10.50;99.90
30893;DHT22;17595;50.884;4.346;2022-11-20T09:06:41;10.60;99.90
30893;DHT22;17595;50.884;4.346;2022-11-20T09:09:06;10.50;99.90
30893;DHT22;17595;50.884;4.346;2022-11-20T09:11:34;10.50;99.90
30893;DHT22;17595;50.884;4.346;2022-11-20T09:13:59;10.50;99.90
30893;DHT22;17595;50.884;4.346;2022-11-20T09:16:25;10.60;99.90
30893;DHT22;17595;50.884;4.346;2022-11-20T09:18:51;10.60;99.90
30893;DHT22;17595;50.884;4.346;2022-11-20T09:21:16;10.60;99.90
30893;DHT22;17595;50.884;4.346;2022-11-20T09:23:42;10.70;99.90
30893;DHT22;17595;50.884;4.346;2022-11-20T09:26:13;10.80;99.90
30893;DHT22;17595;50.884;4.346;2022-11-20T09:28:39;10.70;99.90
30893;DHT22;17595;50.884;4.346;2022-11-20T09:31:09;10.70;99.90
30893;DHT22;17595;50.884;4.346;2022-11-20T09:33:35;10.70;99.90
30893;DHT22;17595;50.884;4.346;2022-11-20T09:36:01;10.80;99.90
30893;DHT22;17595;50.884;4.346;2022-11-20T09:38:27;10.90;99.90
30893;DHT22;17595;50.884;4.346;2022-11-20T09:41:06;10.80;99.90
30893;DHT22;17595;50.884;4.346;2022-11-20T09:46:05;11.00;99.90
30893;DHT22;17595;50.884;4.346;2022-11-20T09:49:07;11.00;99.90
30893;DHT22;17595;50.884;4.346;2022-11-20T09:54:30;11.00;99.90
30893;DHT22;17595;50.884;4.346;2022-11-20T09:57:00;11.10;99.90
30893;DHT22;17595;50.884;4.346;2022-11-20T09:59:33;11.10;99.90
30893;DHT22;17595;50.884;4.346;2022-11-20T10:02:00;11.10;99.90
30893;DHT22;17595;50.884;4.346;2022-11-20T10:04:30;11.10;99.90
30893;DHT22;17595;50.884;4.346;2022-11-20T10:07:21;11.10;99.90
30893;DHT22;17595;50.884;4.346;2022-11-20T10:09:52;11.20;99.90
30893;DHT22;17595;50.884;4.346;2022-11-20T10:22:35;11.40;99.90
30893;DHT22;17595;50.884;4.346;2022-11-20T10:25:17;11.50;99.90
30893;DHT22;17595;50.884;4.346;2022-11-20T10:30:21;11.60;99.90
30893;DHT22;17595;50.884;4.346;2022-11-20T10:35:44;11.70;99.90
30893;DHT22;17595;50.884;4.346;2022-11-20T10:38:31;11.80;99.90
30893;DHT22;17595;50.884;4.346;2022-11-20T10:41:02;11.80;99.90
30893;DHT22;17595;50.884;4.346;2022-11-20T10:43:48;11.80;99.90
30893;DHT22;17595;50.884;4.346;2022-11-20T10:46:22;11.70;99.90
30893;DHT22;17595;50.884;4.346;2022-11-20T10:48:48;11.70;99.90
30893;DHT22;17595;50.884;4.346;2022-11-20T10:54:19;11.70;99.90
30893;DHT22;17595;50.884;4.346;2022-11-20T10:56:48;11.50;99.90
30893;DHT22;17595;50.884;4.346;2022-11-20T11:02:39;11.80;99.90
30893;DHT22;17595;50.884;4.346;2022-11-20T11:07:55;12.00;99.90
30893;DHT22;17595;50.884;4.346;2022-11-20T11:10:48;12.10;99.90
30893;DHT22;17595;50.884;4.346;2022-11-20T11:13:27;12.10;99.90
30893;DHT22;17595;50.884;4.346;2022-11-20T11:15:54;11.90;99.90
30893;DHT22;17595;50.884;4.346;2022-11-20T11:18:31;11.90;99.90
30893;DHT22;17595;50.884;4.346;2022-11-20T11:20:59;12.00;99.90
30893;DHT22;17595;50.884;4.346;2022-11-20T11:23:36;12.10;99.90
30893;DHT22;17595;50.884;4.346;2022-11-20T11:26:06;12.20;99.90
30893;DHT22;17595;50.884;4.346;2022-11-20T11:28:32;12.10;99.90
30893;DHT22;17595;50.884;4.346;2022-11-20T11:30:58;12.10;99.90
30893;DHT22;17595;50.884;4.346;2022-11-20T11:33:29;12.20;99.90
30893;DHT22;17595;50.884;4.346;2022-11-20T11:36:00;12.40;99.90
30893;DHT22;17595;50.884;4.346;2022-11-20T11:38:37;12.50;99.90
30893;DHT22;17595;50.884;4.346;2022-11-20T11:41:05;12.50;99.90
30893;DHT22;17595;50.884;4.346;2022-11-20T11:43:33;12.50;99.90
30893;DHT22;17595;50.884;4.346;2022-11-20T11:46:30;12.40;99.90
30893;DHT22;17595;50.884;4.346;2022-11-20T11:51:41;12.40;99.90
30893;DHT22;17595;50.884;4.346;2022-11-20T11:54:22;12.30;99.90
30893;DHT22;17595;50.884;4.346;2022-11-20T11:56:49;12.30;99.90
30893;DHT22;17595;50.884;4.346;2022-11-20T11:59:33;12.20;99.90
30893;DHT22;17595;50.884;4.346;2022-11-20T12:02:47;12.20;99.90
30893;DHT22;17595;50.884;4.346;2022-11-20T12:13:42;12.10;99.90
30893;DHT22;17595;50.884;4.346;2022-11-20T12:16:13;12.00;99.90
30893;DHT22;17595;50.884;4.346;2022-11-20T12:18:40;12.10;99.90
30893;DHT22;17595;50.884;4.346;2022-11-20T12:24:06;12.00;99.90
30893;DHT22;17595;50.884;4.346;2022-11-20T12:30:07;11.80;99.90
30893;DHT22;17595;50.884;4.346;2022-11-20T12:43:26;11.80;99.90
30893;DHT22;17595;50.884;4.346;2022-11-20T12:49:07;11.90;99.90
30893;DHT22;17595;50.884;4.346;2022-11-20T12:57:21;11.90;99.90
30893;DHT22;17595;50.884;4.346;2022-11-20T13:00:32;12.00;99.90
30893;DHT22;17595;50.884;4.346;2022-11-20T13:05:24;12.00;99.90
30893;DHT22;17595;50.884;4.346;2022-11-20T13:07:53;12.00;99.90
30893;DHT22;17595;50.884;4.346;2022-11-20T13:12:59;11.90;99.90
30893;DHT22;17595;50.884;4.346;2022-11-20T13:15:53;11.80;99.90
30893;DHT22;17595;50.884;4.346;2022-11-20T13:18:21;11.90;99.90
30893;DHT22;17595;50.884;4.346;2022-11-20T13:20:47;12.00;99.90
30893;DHT22;17595;50.884;4.346;2022-11-20T13:23:27;12.10;99.90
30893;DHT22;17595;50.884;4.346;2022-11-20T13:28:45;11.90;99.90
30893;DHT22;17595;50.884;4.346;2022-11-20T13:33:55;12.00;99.90
30893;DHT22;17595;50.884;4.346;2022-11-20T13:36:24;11.70;99.90
30893;DHT22;17595;50.884;4.346;2022-11-20T13:38:53;11.70;99.90
30893;DHT22;17595;50.884;4.346;2022-11-20T13:41:33;11.70;99.90
30893;DHT22;17595;50.884;4.346;2022-11-20T13:46:46;11.60;99.90
30893;DHT22;17595;50.884;4.346;2022-11-20T13:49:24;11.50;99.90
30893;DHT22;17595;50.884;4.346;2022-11-20T13:51:55;11.60;99.90
30893;DHT22;17595;50.884;4.346;2022-11-20T13:54:51;11.60;99.90
30893;DHT22;17595;50.884;4.346;2022-11-20T14:00:28;11.70;99.90
30893;DHT22;17595;50.884;4.346;2022-11-20T14:03:15;11.70;99.90
30893;DHT22;17595;50.884;4.346;2022-11-20T14:05:55;11.70;99.90
30893;DHT22;17595;50.884;4.346;2022-11-20T14:08:28;11.60;99.90
30893;DHT22;17595;50.884;4.346;2022-11-20T14:11:12;11.70;99.90
30893;DHT22;17595;50.884;4.346;2022-11-20T14:13:38;11.60;99.90
30893;DHT22;17595;50.884;4.346;2022-11-20T14:16:04;11.60;99.90
30893;DHT22;17595;50.884;4.346;2022-11-20T14:18:30;11.30;99.90
30893;DHT22;17595;50.884;4.346;2022-11-20T14:20:55;11.40;99.90
30893;DHT22;17595;50.884;4.346;2022-11-20T14:23:27;11.30;99.90
30893;DHT22;17595;50.884;4.346;2022-11-20T14:25:53;11.20;99.90
30893;DHT22;17595;50.884;4.346;2022-11-20T14:28:29;11.00;99.90
30893;DHT22;17595;50.884;4.346;2022-11-20T14:30:56;11.10;99.90
30893;DHT22;17595;50.884;4.346;2022-11-20T14:33:23;11.10;99.90
30893;DHT22;17595;50.884;4.346;2022-11-20T14:35:55;11.20;99.90
30893;DHT22;17595;50.884;4.346;2022-11-20T14:38:25;11.20;99.90
30893;DHT22;17595;50.884;4.346;2022-11-20T14:40:51;11.20;99.90
30893;DHT22;17595;50.884;4.346;2022-11-20T14:45:59;11.30;99.90
30893;DHT22;17595;50.884;4.346;2022-11-20T14:48:47;11.40;99.90
30893;DHT22;17595;50.884;4.346;2022-11-20T14:56:41;11.20;99.90
30893;DHT22;17595;50.884;4.346;2022-11-20T14:59:08;11.20;99.90
30893;DHT22;17595;50.884;4.346;2022-11-20T15:01:35;11.30;99.90
30893;DHT22;17595;50.884;4.346;2022-11-20T15:04:10;11.20;99.90
30893;DHT22;17595;50.884;4.346;2022-11-20T15:06:37;11.20;99.90
30893;DHT22;17595;50.884;4.346;2022-11-20T15:09:04;11.20;99.90
30893;DHT22;17595;50.884;4.346;2022-11-20T15:11:34;11.10;99.90
30893;DHT22;17595;50.884;4.346;2022-11-20T15:14:06;11.10;99.90
30893;DHT22;17595;50.884;4.346;2022-11-20T15:16:32;11.00;99.90
30893;DHT22;17595;50.884;4.346;2022-11-20T15:18:58;11.00;99.90
30893;DHT22;17595;50.884;4.346;2022-11-20T15:21:25;11.10;99.90
30893;DHT22;17595;50.884;4.346;2022-11-20T15:23:51;11.00;99.90
30893;DHT22;17595;50.884;4.346;2022-11-20T15:26:27;11.10;99.90
30893;DHT22;17595;50.884;4.346;2022-11-20T15:28:53;11.10;99.90
30893;DHT22;17595;50.884;4.346;2022-11-20T15:31:21;11.00;99.90
30893;DHT22;17595;50.884;4.346;2022-11-20T15:33:47;11.00;99.90
30893;DHT22;17595;50.884;4.346;2022-11-20T15:36:13;10.90;99.90
30893;DHT22;17595;50.884;4.346;2022-11-20T15:38:38;10.80;99.90
30893;DHT22;17595;50.884;4.346;2022-11-20T15:41:05;10.70;99.90
30893;DHT22;17595;50.884;4.346;2022-11-20T15:43:30;10.60;99.90
30893;DHT22;17595;50.884;4.346;2022-11-20T15:46:17;10.60;99.90
30893;DHT22;17595;50.884;4.346;2022-11-20T15:48:53;10.60;99.90
30893;DHT22;17595;50.884;4.346;2022-11-20T15:53:57;10.30;99.90
30893;DHT22;17595;50.884;4.346;2022-11-20T15:56:24;10.20;99.90
30893;DHT22;17595;50.884;4.346;2022-11-20T15:58:50;10.30;99.90
30893;DHT22;17595;50.884;4.346;2022-11-20T16:01:18;10.10;99.90
30893;DHT22;17595;50.884;4.346;2022-11-20T16:03:44;10.10;99.90
30893;DHT22;17595;50.884;4.346;2022-11-20T16:06:10;10.10;99.90
30893;DHT22;17595;50.884;4.346;2022-11-20T16:08:35;10.00;99.90
30893;DHT22;17595;50.884;4.346;2022-11-20T16:11:04;10.10;99.90
30893;DHT22;17595;50.884;4.346;2022-11-20T16:13:32;10.20;99.90
30893;DHT22;17595;50.884;4.346;2022-11-20T16:16:25;10.10;99.90
30893;DHT22;17595;50.884;4.346;2022-11-20T16:18:54;10.20;99.90
30893;DHT22;17595;50.884;4.346;2022-11-20T16:21:20;10.10;99.90
30893;DHT22;17595;50.884;4.346;2022-11-20T16:23:46;10.00;99.90
30893;DHT22;17595;50.884;4.346;2022-11-20T16:26:13;9.90;99.90
30893;DHT22;17595;50.884;4.346;2022-11-20T16:28:39;9.90;99.90
30893;DHT22;17595;50.884;4.346;2022-11-20T16:31:13;9.80;99.90
30893;DHT22;17595;50.884;4.346;2022-11-20T16:33:39;9.70;99.90
30893;DHT22;17595;50.884;4.346;2022-11-20T16:36:13;9.70;99.90
30893;DHT22;17595;50.884;4.346;2022-11-20T16:38:41;9.60;99.90
30893;DHT22;17595;50.884;4.346;2022-11-20T16:41:07;9.70;99.90
30893;DHT22;17595;50.884;4.346;2022-11-20T16:43:46;9.70;99.90
30893;DHT22;17595;50.884;4.346;2022-11-20T16:46:13;9.70;99.90
30893;DHT22;17595;50.884;4.346;2022-11-20T16:48:39;9.80;99.90
30893;DHT22;17595;50.884;4.346;2022-11-20T16:51:08;9.70;99.90
30893;DHT22;17595;50.884;4.346;2022-11-20T16:53:35;9.80;99.90
30893;DHT22;17595;50.884;4.346;2022-11-20T16:56:15;9.80;99.90
30893;DHT22;17595;50.884;4.346;2022-11-20T16:58:42;9.70;99.90
30893;DHT22;17595;50.884;4.346;2022-11-20T17:01:09;9.60;99.90
30893;DHT22;17595;50.884;4.346;2022-11-20T17:03:37;9.40;99.90
30893;DHT22;17595;50.884;4.346;2022-11-20T17:06:16;9.30;99.90
30893;DHT22;17595;50.884;4.346;2022-11-20T17:08:43;9.10;99.90
30893;DHT22;17595;50.884;4.346;2022-11-20T17:11:11;9.10;99.90
30893;DHT22;17595;50.884;4.346;2022-11-20T17:13:38;8.90;99.90
30893;DHT22;17595;50.884;4.346;2022-11-20T17:16:09;8.80;99.90
30893;DHT22;17595;50.884;4.346;2022-11-20T17:18:35;8.80;99.90
30893;DHT22;17595;50.884;4.346;2022-11-20T17:21:01;8.80;99.90
30893;DHT22;17595;50.884;4.346;2022-11-20T17:23:39;9.00;99.90
30893;DHT22;17595;50.884;4.346;2022-11-20T17:26:15;9.10;99.90
30893;DHT22;17595;50.884;4.346;2022-11-20T17:28:45;9.10;99.90
30893;DHT22;17595;50.884;4.346;2022-11-20T17:31:14;9.10;99.90